Boncarbo, Colorado
Current Conditions -  °F | °C
As of 5:54 AM on Saturday 01 Nov 2014 (Local Time) from KTAD Reporting Station
Clear Clear  
Wind Chill: 12°   Ceiling: Unl
Heat Index: 12°   Visibility: 10mi
Dew Point:   Wind: 15mph
Humidity: 47%   Direction: 260°W
Pressure: 30.06"   Gusts: 25mph
Location:  37.22°N, 104.7°W
Report Text: KTAD 011154Z AUTO 26013G22KT 10SM CLR 12/01 A3006 RMK AO2 SLP130 T01170006 10117 20100 56006
Loading
Personal Weather Stations






























Interactive Weather Map
Tropical Storm Tracking
New forecast layout! Learn more

10-Day Weather Forecast

Advertisements
Track Severe Weather on mobile